Senhora Da Saude — CUBU9 — position and weather

sailwx.info

Track history (hours):
 
Tides and Currents Weather Stations Pressure Air Temp Water Temp Dewpoint Dewpoint Depression Visibility Wind Speed Wind Dir Waves Ship Positions

Senhora Da Saude

Last reported at 2018-May-21 06:22 UTC. Time now 2018-May-21 11:10 UTC.
Position N 39°11' W 009°23'.

Length 18 m.

Type: Fishing. MMSI: 204278000.

Date/timePositionNaut miles runAvg speedWind from/ knotsBaromVisibWave heightAir tempDewpointWater temp
2018-May-21 06:22N 39°11' W 009°23'1 1.8
2018-May-21 05:56N 39°12' W 009°23'1 0.9
2018-May-21 05:04N 39°13' W 009°23'1 0.1
2018-May-20 11:31N 39°11' W 009°23'0 2.2
2018-May-20 11:30N 39°11' W 009°23'0 0.2
2018-May-20 10:07N 39°11' W 009°24'1 2.1
2018-May-20 09:51N 39°12' W 009°24'3 7.5
2018-May-20 09:30N 39°11' W 009°28'4 7.6
2018-May-20 08:59N 39°11' W 009°33'1 1.6
2018-May-20 08:30N 39°10' W 009°33'1 1.3
2018-May-20 08:00N 39°11' W 009°33'0 0.3
2018-May-20 07:30N 39°11' W 009°33'0 0.7
2018-May-20 07:00N 39°10' W 009°33'1 1.2
2018-May-20 06:30N 39°11' W 009°33'0 0.8
2018-May-20 06:00N 39°11' W 009°32'1 2.2
2018-May-20 05:30N 39°12' W 009°31'5 6.9
2018-May-20 04:50N 39°16' W 009°28'5 0.3
2018-May-19 13:10N 39°11' W 009°23'8 1.5
2018-May-19 07:54N 39°18' W 009°29'0 1.1
2018-May-19 07:30N 39°18' W 009°29'1 0.5
2018-May-19 05:58N 39°17' W 009°29'1 2.1
2018-May-19 05:30N 39°17' W 009°28'5 5.9
2018-May-19 04:44N 39°14' W 009°24'2 6.5
2018-May-19 04:28N 39°15' W 009°24'8 0.5
2018-May-18 13:17N 39°17' W 009°33'2 3.4
2018-May-18 12:38N 39°16' W 009°36'0 0.3
2018-May-18 11:20N 39°16' W 009°36'4 6.2
2018-May-18 10:44N 39°16' W 009°31'2 2.2
2018-May-18 10:02N 39°15' W 009°29'0 2.8
2018-May-18 09:51N 39°15' W 009°29'3 7.3
2018-May-18 09:30N 39°13' W 009°31'3 5.6
2018-May-18 09:00N 39°10' W 009°33'0 0.8
2018-May-18 08:30N 39°10' W 009°33'1 1.4
2018-May-18 08:00N 39°11' W 009°33'0 0.5
2018-May-18 07:30N 39°10' W 009°33'0 0.5
2018-May-18 06:59N 39°10' W 009°33'1 1.5
2018-May-18 06:30N 39°11' W 009°33'1 1.1
2018-May-18 06:00N 39°11' W 009°32'1 1.0
2018-May-18 05:29N 39°11' W 009°32'3 6.4
2018-May-18 05:00N 39°14' W 009°30'2 3.6
2018-May-18 04:30N 39°16' W 009°30'4 3.9
2018-May-18 03:36N 39°16' W 009°35'1 7.5
2018-May-18 03:30N 39°17' W 009°34'5 0.4
2018-May-17 14:23N 39°20' W 009°28'2 4.0
2018-May-17 13:56N 39°18' W 009°29'0 0.2
2018-May-17 12:52N 39°18' W 009°29'0 0.5
2018-May-17 12:29N 39°18' W 009°29'1 1.4
2018-May-17 12:00N 39°19' W 009°29'1 0.8
2018-May-17 10:59N 39°18' W 009°28'3 5.7
2018-May-17 10:30N 39°15' W 009°30'4 7.0
2018-May-17 10:00N 39°12' W 009°32'1 2.9
2018-May-17 09:30N 39°11' W 009°33'2 3.6
2018-May-17 09:00N 39°13' W 009°32'4 8.1
2018-May-17 08:30N 39°17' W 009°30'1 1.2
2018-May-17 07:21N 39°18' W 009°30'3 0.2
2018-May-16 14:08N 39°18' W 009°26'2 7.0
2018-May-16 13:51N 39°18' W 009°28'0 0.8
2018-May-16 13:30N 39°18' W 009°29'1 0.9
2018-May-16 12:51N 39°18' W 009°29'2 6.3
2018-May-16 12:29N 39°16' W 009°27'7 2.2
2018-May-16 09:12N 39°09' W 009°24'0 1.4
2018-May-16 09:00N 39°10' W 009°24'0 0.1
2018-May-16 08:19N 39°10' W 009°24'1 1.4
2018-May-16 07:58N 39°09' W 009°24'1 1.6
2018-May-16 07:30N 39°10' W 009°24'1 0.8
2018-May-16 06:43N 39°09' W 009°24'1 0.7
2018-May-16 05:55N 39°10' W 009°23'4 5.2
2018-May-16 05:06N 39°14' W 009°24'5 0.3
2018-May-15 13:00N 39°09' W 009°24'1 0.9
2018-May-15 12:23N 39°09' W 009°24'2 6.1
2018-May-15 12:00N 39°11' W 009°25'2 3.9
2018-May-15 11:29N 39°13' W 009°26'  
2018-May-13 06:16N 39°12' W 009°24'0 0.0
2018-May-11 16:24N 39°12' W 009°23'3 1.3
2018-May-11 14:02N 39°09' W 009°24'0 1.0
2018-May-11 14:00N 39°09' W 009°24'0 0.7
2018-May-11 13:25N 39°09' W 009°24'0 0.4
2018-May-11 13:00N 39°10' W 009°24'0 0.4
2018-May-11 11:48N 39°10' W 009°24'0 0.7
2018-May-11 11:09N 39°09' W 009°24'0 0.6
2018-May-11 10:56N 39°09' W 009°24'0 0.3
2018-May-11 10:30N 39°09' W 009°24'0 0.5
2018-May-11 09:59N 39°09' W 009°24'1 1.1
2018-May-11 09:29N 39°10' W 009°24'0 0.2
2018-May-11 06:53N 39°09' W 009°24'  
Track history (hours):
 
Tides and Currents Weather Stations Pressure Air Temp Water Temp Dewpoint Dewpoint Depression Visibility Wind Speed Wind Dir Waves Ship Positions

Senhora Da Saude

Last reported at 2018-May-21 06:22 UTC. Time now 2018-May-21 11:10 UTC.
Position N 39°11' W 009°23'.

Length 18 m.

Type: Fishing. MMSI: 204278000.

Date/timePositionNaut miles runAvg speedWind from/ knotsBaromVisibWave heightAir tempDewpointWater temp
2018-May-21 06:22N 39°11' W 009°23'1 1.8
2018-May-21 05:56N 39°12' W 009°23'1 0.9
2018-May-21 05:04N 39°13' W 009°23'1 0.1
2018-May-20 11:31N 39°11' W 009°23'0 2.2
2018-May-20 11:30N 39°11' W 009°23'0 0.2
2018-May-20 10:07N 39°11' W 009°24'1 2.1
2018-May-20 09:51N 39°12' W 009°24'3 7.5
2018-May-20 09:30N 39°11' W 009°28'4 7.6
2018-May-20 08:59N 39°11' W 009°33'1 1.6
2018-May-20 08:30N 39°10' W 009°33'1 1.3
2018-May-20 08:00N 39°11' W 009°33'0 0.3
2018-May-20 07:30N 39°11' W 009°33'0 0.7
2018-May-20 07:00N 39°10' W 009°33'1 1.2
2018-May-20 06:30N 39°11' W 009°33'0 0.8
2018-May-20 06:00N 39°11' W 009°32'1 2.2
2018-May-20 05:30N 39°12' W 009°31'5 6.9
2018-May-20 04:50N 39°16' W 009°28'5 0.3
2018-May-19 13:10N 39°11' W 009°23'8 1.5
2018-May-19 07:54N 39°18' W 009°29'0 1.1
2018-May-19 07:30N 39°18' W 009°29'1 0.5
2018-May-19 05:58N 39°17' W 009°29'1 2.1
2018-May-19 05:30N 39°17' W 009°28'5 5.9
2018-May-19 04:44N 39°14' W 009°24'2 6.5
2018-May-19 04:28N 39°15' W 009°24'8 0.5
2018-May-18 13:17N 39°17' W 009°33'2 3.4
2018-May-18 12:38N 39°16' W 009°36'0 0.3
2018-May-18 11:20N 39°16' W 009°36'4 6.2
2018-May-18 10:44N 39°16' W 009°31'2 2.2
2018-May-18 10:02N 39°15' W 009°29'0 2.8
2018-May-18 09:51N 39°15' W 009°29'3 7.3
2018-May-18 09:30N 39°13' W 009°31'3 5.6
2018-May-18 09:00N 39°10' W 009°33'0 0.8
2018-May-18 08:30N 39°10' W 009°33'1 1.4
2018-May-18 08:00N 39°11' W 009°33'0 0.5
2018-May-18 07:30N 39°10' W 009°33'0 0.5
2018-May-18 06:59N 39°10' W 009°33'1 1.5
2018-May-18 06:30N 39°11' W 009°33'1 1.1
2018-May-18 06:00N 39°11' W 009°32'1 1.0
2018-May-18 05:29N 39°11' W 009°32'3 6.4
2018-May-18 05:00N 39°14' W 009°30'2 3.6
2018-May-18 04:30N 39°16' W 009°30'4 3.9
2018-May-18 03:36N 39°16' W 009°35'1 7.5
2018-May-18 03:30N 39°17' W 009°34'5 0.4
2018-May-17 14:23N 39°20' W 009°28'2 4.0
2018-May-17 13:56N 39°18' W 009°29'0 0.2
2018-May-17 12:52N 39°18' W 009°29'0 0.5
2018-May-17 12:29N 39°18' W 009°29'1 1.4
2018-May-17 12:00N 39°19' W 009°29'1 0.8
2018-May-17 10:59N 39°18' W 009°28'3 5.7
2018-May-17 10:30N 39°15' W 009°30'4 7.0
2018-May-17 10:00N 39°12' W 009°32'1 2.9
2018-May-17 09:30N 39°11' W 009°33'2 3.6
2018-May-17 09:00N 39°13' W 009°32'4 8.1
2018-May-17 08:30N 39°17' W 009°30'1 1.2
2018-May-17 07:21N 39°18' W 009°30'3 0.2
2018-May-16 14:08N 39°18' W 009°26'2 7.0
2018-May-16 13:51N 39°18' W 009°28'0 0.8
2018-May-16 13:30N 39°18' W 009°29'1 0.9
2018-May-16 12:51N 39°18' W 009°29'2 6.3
2018-May-16 12:29N 39°16' W 009°27'7 2.2
2018-May-16 09:12N 39°09' W 009°24'0 1.4
2018-May-16 09:00N 39°10' W 009°24'0 0.1
2018-May-16 08:19N 39°10' W 009°24'1 1.4
2018-May-16 07:58N 39°09' W 009°24'1 1.6
2018-May-16 07:30N 39°10' W 009°24'1 0.8
2018-May-16 06:43N 39°09' W 009°24'1 0.7
2018-May-16 05:55N 39°10' W 009°23'4 5.2
2018-May-16 05:06N 39°14' W 009°24'5 0.3
2018-May-15 13:00N 39°09' W 009°24'1 0.9
2018-May-15 12:23N 39°09' W 009°24'2 6.1
2018-May-15 12:00N 39°11' W 009°25'2 3.9
2018-May-15 11:29N 39°13' W 009°26'  
2018-May-13 06:16N 39°12' W 009°24'0 0.0
2018-May-11 16:24N 39°12' W 009°23'3 1.3
2018-May-11 14:02N 39°09' W 009°24'0 1.0
2018-May-11 14:00N 39°09' W 009°24'0 0.7
2018-May-11 13:25N 39°09' W 009°24'0 0.4
2018-May-11 13:00N 39°10' W 009°24'0 0.4
2018-May-11 11:48N 39°10' W 009°24'0 0.7
2018-May-11 11:09N 39°09' W 009°24'0 0.6
2018-May-11 10:56N 39°09' W 009°24'0 0.3
2018-May-11 10:30N 39°09' W 009°24'0 0.5
2018-May-11 09:59N 39°09' W 009°24'1 1.1
2018-May-11 09:29N 39°10' W 009°24'0 0.2
2018-May-11 06:53N 39°09' W 009°24'  

Dump ship's entire track history